Time;durP1;ratioP1;P1;durP2;ratioP2;P2;SDS_P1;SDS_P2;PMS_P1;PMS_P2;Temp;Humidity;BMP_temperature;BMP_pressure;BME280_temperature;BME280_humidity;BME280_pressure;Samples;Min_cycle;Max_cycle;Signal;HPM_P1;HPM_P2
2022/05/20 00:01:43;;;;;;;2.83;2.60;;;;;;;14.94;59.84;100577.75;5116195;28;20252;-71
2022/05/20 00:04:09;;;;;;;5.87;2.70;;;;;;;14.90;59.84;100576.50;5116097;28;20251;-71
2022/05/20 00:06:36;;;;;;;6.20;2.47;;;;;;;14.84;60.76;100569.28;5116100;28;20187;-71
2022/05/20 00:09:04;;;;;;;2.57;2.47;;;;;;;14.85;60.29;100568.25;5116299;28;20195;-70
2022/05/20 00:11:31;;;;;;;2.90;2.70;;;;;;;14.82;60.70;100565.97;5115843;28;20195;-71
2022/05/20 00:13:59;;;;;;;3.10;2.80;;;;;;;14.73;61.52;100563.63;5116637;28;20233;-72
2022/05/20 00:16:29;;;;;;;2.70;2.60;;;;;;;14.56;62.13;100567.66;5115486;28;20226;-71
2022/05/20 00:18:55;;;;;;;3.40;3.20;;;;;;;14.54;62.94;100557.13;5116677;28;20582;-72
2022/05/20 00:21:22;;;;;;;2.97;2.77;;;;;;;14.65;62.80;100556.59;5115785;28;20186;-71
2022/05/20 00:23:49;;;;;;;3.30;3.00;;;;;;;14.68;62.14;100560.72;5115657;28;20186;-70
2022/05/20 00:26:15;;;;;;;3.20;2.90;;;;;;;14.61;63.28;100560.69;5115939;28;20286;-71
2022/05/20 00:28:46;;;;;;;7.10;2.67;;;;;;;14.75;62.14;100567.75;5115331;28;20193;-71
2022/05/20 00:31:13;;;;;;;3.03;2.63;;;;;;;14.91;62.18;100562.09;5115361;28;20179;-72
2022/05/20 00:33:41;;;;;;;3.83;3.10;;;;;;;15.01;59.79;100554.56;5115516;28;20236;-70
2022/05/20 00:36:09;;;;;;;3.27;2.60;;;;;;;14.98;59.57;100559.44;5115004;28;20244;-71
2022/05/20 00:38:36;;;;;;;4.73;2.70;;;;;;;14.93;59.58;100552.03;5115530;28;20194;-72
2022/05/20 00:41:03;;;;;;;4.80;2.70;;;;;;;14.90;60.17;100559.63;5116210;27;20186;-72
2022/05/20 00:43:38;;;;;;;3.73;2.40;;;;;;;14.76;61.17;100561.41;5115031;28;20772;-73
2022/05/20 00:46:06;;;;;;;3.93;3.40;;;;;;;14.67;62.80;100554.53;5115932;28;20239;-71
2022/05/20 00:48:34;;;;;;;6.73;3.47;;;;;;;14.61;61.92;100558.03;5115162;28;20246;-71
2022/05/20 00:51:06;;;;;;;3.80;3.20;;;;;;;14.52;61.97;100556.53;5116036;28;20582;-70
2022/05/20 00:53:42;;;;;;;2.90;2.73;;;;;;;14.51;62.21;100549.53;5114949;28;20182;-70
2022/05/20 00:56:14;;;;;;;3.67;3.37;;;;;;;14.43;62.16;100552.34;5115052;28;20214;-69
2022/05/20 00:58:43;;;;;;;6.27;3.50;;;;;;;14.36;62.25;100554.16;5115525;28;20526;-69
2022/05/20 01:01:09;;;;;;;3.37;3.07;;;;;;;14.43;61.81;100548.84;5114908;28;20195;-69
2022/05/20 01:03:37;;;;;;;3.33;3.00;;;;;;;14.41;62.14;100551.69;5115238;28;20198;-69
2022/05/20 01:06:06;;;;;;;3.47;3.10;;;;;;;14.43;61.43;100551.50;5115159;28;20190;-69
2022/05/20 01:08:34;;;;;;;2.93;2.73;;;;;;;14.33;61.92;100551.84;5114918;28;20222;-70
2022/05/20 01:11:01;;;;;;;4.07;2.70;;;;;;;14.27;61.44;100541.13;5115834;28;20271;-69
2022/05/20 01:13:30;;;;;;;2.97;2.53;;;;;;;14.32;61.86;100549.38;5114468;28;20191;-69
2022/05/20 01:16:02;;;;;;;4.50;2.80;;;;;;;14.24;62.37;100550.34;5114576;28;20240;-69
2022/05/20 01:18:33;;;;;;;3.07;2.77;;;;;;;14.31;62.43;100563.75;5115227;28;20186;-68
2022/05/20 01:20:59;;;;;;;4.73;2.40;;;;;;;14.29;62.88;100555.94;5114991;27;20179;-69
2022/05/20 01:23:29;;;;;;;4.13;2.60;;;;;;;14.20;62.91;100551.72;5114737;28;20199;-69
2022/05/20 01:25:58;;;;;;;4.17;2.53;;;;;;;14.20;62.98;100562.41;5114581;28;20202;-69
2022/05/20 01:28:27;;;;;;;3.00;2.57;;;;;;;14.10;63.14;100561.91;5114782;28;20194;-71
2022/05/20 01:30:56;;;;;;;3.03;2.83;;;;;;;14.09;63.45;100549.56;5114133;28;20195;-70
2022/05/20 01:33:26;;;;;;;2.50;2.40;;;;;;;14.06;63.89;100560.66;5114889;28;20198;-71
2022/05/20 01:35:53;;;;;;;3.70;2.47;;;;;;;14.05;64.57;100560.84;5114644;28;20254;-71
2022/05/20 01:38:20;;;;;;;3.10;2.90;;;;;;;13.89;64.76;100564.59;5114497;28;20239;-70
2022/05/20 01:40:52;;;;;;;7.17;2.90;;;;;;;13.77;65.79;100568.78;5114097;28;20247;-69
2022/05/20 01:43:33;;;;;;;4.63;3.10;;;;;;;13.70;66.55;100559.91;5113921;28;20667;-69
2022/05/20 01:46:10;;;;;;;2.80;2.70;;;;;;;13.71;66.87;100561.53;5113581;28;20239;-69
2022/05/20 01:48:43;;;;;;;2.77;2.57;;;;;;;13.64;65.95;100565.97;5114392;28;20230;-69
2022/05/20 01:51:15;;;;;;;2.43;2.07;;;;;;;13.55;65.92;100572.47;5114993;28;20190;-69
2022/05/20 01:53:47;;;;;;;3.60;2.67;;;;;;;13.52;65.98;100583.50;5113831;28;20217;-69
2022/05/20 01:56:20;;;;;;;2.70;2.50;;;;;;;13.48;65.81;100581.41;5114727;28;20210;-69
2022/05/20 01:58:56;;;;;;;2.97;2.37;;;;;;;13.40;65.28;100578.84;5114014;28;20240;-69
2022/05/20 02:01:27;;;;;;;2.43;2.23;;;;;;;13.31;65.08;100583.47;5114465;28;20273;-68
2022/05/20 02:03:58;;;;;;;3.07;2.33;;;;;;;13.17;65.33;100584.31;5114740;28;20190;-69
2022/05/20 02:06:31;;;;;;;4.50;2.00;;;;;;;13.04;65.52;100584.16;5113782;28;20610;-69
2022/05/20 02:09:00;;;;;;;3.40;2.07;;;;;;;12.91;66.19;100575.94;5113967;28;20187;-69
2022/05/20 02:11:34;;;;;;;1.90;1.80;;;;;;;12.94;65.94;100572.91;5113760;28;20190;-69
2022/05/20 02:14:05;;;;;;;2.13;2.00;;;;;;;12.84;66.18;100572.38;5113937;28;20187;-70
2022/05/20 02:16:34;;;;;;;5.00;2.10;;;;;;;12.78;66.00;100567.75;5113336;28;20238;-70
2022/05/20 02:19:06;;;;;;;2.90;2.67;;;;;;;12.73;65.75;100570.16;5113199;28;20195;-70
2022/05/20 02:21:39;;;;;;;2.30;1.90;;;;;;;12.67;65.96;100573.56;5113653;28;20640;-70
2022/05/20 02:24:11;;;;;;;2.57;2.27;;;;;;;12.75;65.94;100567.31;5113304;28;20714;-70
2022/05/20 02:26:43;;;;;;;3.17;2.30;;;;;;;12.87;66.11;100565.84;5113082;28;20648;-71
2022/05/20 02:29:14;;;;;;;3.43;2.47;;;;;;;12.88;66.61;100568.31;5113352;28;20741;-70
2022/05/20 02:31:47;;;;;;;2.93;2.47;;;;;;;12.83;67.30;100570.69;5113027;28;20662;-71
2022/05/20 02:34:14;;;;;;;3.43;2.40;;;;;;;12.77;67.21;100570.59;5113331;28;20187;-70
2022/05/20 02:36:41;;;;;;;2.53;2.20;;;;;;;12.74;67.17;100571.78;5113093;28;20275;-71
2022/05/20 02:39:15;;;;;;;2.30;2.20;;;;;;;12.73;67.33;100572.81;5113418;28;20247;-71
2022/05/20 02:41:45;;;;;;;2.20;2.00;;;;;;;12.74;66.83;100571.78;5113427;28;20218;-70
2022/05/20 02:44:12;;;;;;;3.60;2.27;;;;;;;12.72;66.11;100576.50;5112816;28;20651;-71
2022/05/20 02:46:40;;;;;;;3.67;2.20;;;;;;;12.69;66.38;100568.03;5113290;28;20194;-71
2022/05/20 02:49:07;;;;;;;2.60;2.40;;;;;;;12.64;66.86;100571.25;5112751;28;20234;-71
2022/05/20 02:51:34;;;;;;;3.30;2.33;;;;;;;12.58;66.96;100566.63;5113485;28;20548;-71
2022/05/20 02:54:02;;;;;;;2.73;2.40;;;;;;;12.55;67.25;100572.34;5112948;28;20239;-71
2022/05/20 02:56:28;;;;;;;6.23;2.60;;;;;;;12.49;66.89;100559.75;5113603;28;20218;-71
2022/05/20 03:04:24;;;;;;;4.07;2.43;;;;;;;12.54;67.29;100557.34;5112954;28;20219;-71
2022/05/20 03:06:54;;;;;;;2.47;2.30;;;;;;;12.51;67.05;100557.72;5112769;28;20199;-71
2022/05/20 03:09:23;;;;;;;6.23;2.53;;;;;;;12.48;66.89;100560.75;5113046;28;20226;-70
2022/05/20 03:11:51;;;;;;;3.93;2.60;;;;;;;12.47;67.35;100556.44;5112363;28;20259;-69
2022/05/20 03:14:21;;;;;;;4.40;2.20;;;;;;;12.50;67.49;100565.91;5112624;28;20573;-69
2022/05/20 03:16:48;;;;;;;2.47;2.23;;;;;;;12.57;67.38;100561.50;5112984;28;20214;-70
2022/05/20 03:19:15;;;;;;;8.70;3.07;;;;;;;12.63;66.92;100550.94;5112283;28;20194;-70
2022/05/20 03:21:42;;;;;;;7.33;2.27;;;;;;;12.67;67.28;100557.56;5112771;28;20231;-70
2022/05/20 03:24:10;;;;;;;5.13;2.40;;;;;;;12.81;67.30;100555.88;5112278;28;20722;-70
2022/05/20 03:26:37;;;;;;;4.87;2.33;;;;;;;12.93;66.95;100559.75;5112729;28;20198;-70
2022/05/20 03:29:05;;;;;;;2.60;2.40;;;;;;;12.97;66.57;100561.91;5112226;28;20568;-70
2022/05/20 03:31:36;;;;;;;4.70;2.50;;;;;;;13.05;66.05;100569.81;5112632;28;20243;-70
2022/05/20 03:34:05;;;;;;;5.80;2.93;;;;;;;13.04;65.65;100567.31;5112140;28;20186;-69
2022/05/20 03:36:33;;;;;;;4.33;2.93;;;;;;;12.94;65.15;100572.91;5112461;28;20214;-70
2022/05/20 03:39:00;;;;;;;3.27;2.87;;;;;;;13.06;65.46;100573.28;5112711;28;20190;-70
2022/05/20 03:41:26;;;;;;;2.77;2.57;;;;;;;13.04;65.64;100573.50;5112093;28;20239;-70
2022/05/20 03:43:53;;;;;;;3.27;2.50;;;;;;;13.02;65.59;100575.50;5112695;28;20187;-70
2022/05/20 03:46:20;;;;;;;14.23;3.30;;;;;;;13.12;65.39;100576.06;5112363;28;20252;-70
2022/05/20 03:48:48;;;;;;;4.80;2.70;;;;;;;13.26;64.88;100577.88;5112178;28;20691;-70
2022/05/20 03:51:16;;;;;;;19.53;3.73;;;;;;;13.55;64.77;100575.13;5111966;28;20191;-70
2022/05/20 03:53:43;;;;;;;7.43;3.33;;;;;;;13.98;63.00;100584.84;5113010;28;20248;-69
2022/05/20 03:56:10;;;;;;;2.60;2.10;;;;;;;14.18;61.26;100585.00;5111824;28;20214;-69
2022/05/20 03:58:38;;;;;;;5.43;2.57;;;;;;;14.50;61.11;100584.47;5111893;28;20259;-70
2022/05/20 04:03:55;;;;;;;4.80;2.50;;;;;;;16.41;54.87;100588.53;5112418;28;20672;-68
2022/05/20 04:06:21;;;;;;;5.83;3.03;;;;;;;17.35;51.69;100591.41;5111863;28;20198;-69
2022/05/20 04:08:48;;;;;;;5.37;2.60;;;;;;;18.20;49.64;100601.69;5112539;28;20248;-68
2022/05/20 04:11:15;;;;;;;16.77;3.10;;;;;;;19.44;50.64;100595.97;5116091;28;20198;-71
2022/05/20 04:13:43;;;;;;;10.53;2.77;;;;;;;20.96;43.29;100605.88;5115597;28;20574;-71
2022/05/20 04:16:11;;;;;;;3.97;2.47;;;;;;;22.29;38.80;100607.19;5116039;28;20218;-70
2022/05/20 04:18:40;;;;;;;8.23;2.50;;;;;;;23.28;36.81;100617.97;5115820;28;20251;-72
2022/05/20 04:21:08;;;;;;;5.00;2.37;;;;;;;24.10;35.44;100609.44;5115837;28;20190;-72
2022/05/20 04:23:35;;;;;;;4.97;2.40;;;;;;;25.00;34.43;100604.75;5115421;28;20199;-72
2022/05/20 04:26:02;;;;;;;2.40;2.17;;;;;;;25.82;30.60;100604.03;5116467;28;20249;-72
2022/05/20 04:28:29;;;;;;;18.40;3.13;;;;;;;26.66;29.08;100613.47;5115610;28;20198;-72
2022/05/20 04:30:58;;;;;;;11.40;2.53;;;;;;;27.29;28.70;100610.06;5115257;28;20251;-73
2022/05/20 04:33:26;;;;;;;12.27;2.20;;;;;;;28.01;27.30;100610.31;5115675;28;20579;-69
2022/05/20 04:35:53;;;;;;;6.20;2.10;;;;;;;27.78;26.87;100613.66;5115683;28;20223;-69
2022/05/20 04:38:21;;;;;;;9.13;2.13;;;;;;;27.82;26.47;100609.31;5115299;28;20191;-70
2022/05/20 04:46:56;;;;;;;4.10;2.00;;;;;;;27.76;26.58;100610.41;5114948;28;20743;-69
2022/05/20 04:49:13;;;;;;;12.10;2.63;;;;;;;27.93;26.26;100621.81;5078115;28;20580;-70
2022/05/20 04:51:41;;;;;;;10.20;2.80;;;;;;;27.79;26.42;100621.59;5114951;28;20220;-70
2022/05/20 04:57:09;;;;;;;14.60;3.33;;;;;;;28.20;26.00;100625.72;5051892;28;20563;-71
2022/05/20 04:59:37;;;;;;;17.93;2.93;;;;;;;27.97;26.34;100623.69;5057425;28;20207;-70
2022/05/20 05:02:04;;;;;;;6.00;2.20;;;;;;;28.31;25.92;100623.75;5087815;28;20243;-71
2022/05/20 05:04:31;;;;;;;7.00;2.63;;;;;;;28.65;25.50;100630.03;5112707;28;20194;-70
2022/05/20 05:06:57;;;;;;;19.90;3.57;;;;;;;28.72;25.64;100627.81;5114811;28;20251;-71
2022/05/20 05:09:26;;;;;;;6.77;2.60;;;;;;;28.55;25.52;100630.94;5114810;28;20248;-71
2022/05/20 05:11:53;;;;;;;4.77;2.50;;;;;;;28.42;25.80;100636.28;5112442;28;20803;-71
2022/05/20 05:14:19;;;;;;;2.27;2.17;;;;;;;28.29;25.87;100625.94;5112369;28;20736;-71
2022/05/20 05:16:46;;;;;;;3.17;2.03;;;;;;;28.49;26.05;100631.28;5114172;28;20275;-71
2022/05/20 05:19:13;;;;;;;3.60;2.10;;;;;;;28.56;25.96;100626.31;5114302;28;20213;-70
2022/05/20 05:21:40;;;;;;;21.37;4.30;;;;;;;29.23;25.62;100630.88;5113257;28;20655;-70
2022/05/20 05:24:08;;;;;;;8.93;2.80;;;;;;;29.29;25.21;100606.69;5114525;28;20193;-71
2022/05/20 05:26:36;;;;;;;4.37;2.57;;;;;;;29.21;25.23;100636.63;5114821;28;20199;-71
2022/05/20 05:29:04;;;;;;;13.57;2.63;;;;;;;29.29;25.29;100641.47;5113313;28;20602;-71
2022/05/20 05:31:31;;;;;;;7.23;2.50;;;;;;;29.36;25.26;100641.13;5113135;28;20195;-71
2022/05/20 05:33:58;;;;;;;10.33;2.53;;;;;;;29.32;25.27;100635.44;5123647;27;20220;-70
2022/05/20 05:36:24;;;;;;;12.70;3.03;;;;;;;29.18;25.38;100635.31;5120253;27;20209;-70
2022/05/20 05:38:51;;;;;;;9.33;2.60;;;;;;;29.38;25.43;100631.50;5134494;27;20190;-70
2022/05/20 05:41:20;;;;;;;15.40;3.10;;;;;;;28.83;25.66;100632.09;5122650;27;20190;-70
2022/05/20 05:43:49;;;;;;;19.77;3.00;;;;;;;28.65;25.99;100625.41;5114757;28;20190;-71
2022/05/20 05:46:15;;;;;;;8.63;3.03;;;;;;;28.92;26.25;100627.63;5113821;27;20664;-71
2022/05/20 05:48:42;;;;;;;9.70;2.50;;;;;;;28.84;26.40;100628.25;5115602;27;20234;-71
2022/05/20 05:51:09;;;;;;;11.67;3.77;;;;;;;28.91;26.37;100624.03;5135415;27;20235;-70
2022/05/20 05:53:36;;;;;;;17.53;4.00;;;;;;;28.87;26.78;100617.53;5134656;27;20190;-71
2022/05/20 05:56:05;;;;;;;4.83;2.57;;;;;;;29.17;25.81;100617.25;5134021;27;20711;-71
2022/05/20 05:58:33;;;;;;;5.80;2.50;;;;;;;28.80;26.31;100622.53;5134271;27;20238;-71
2022/05/20 06:01:01;;;;;;;10.53;2.77;;;;;;;28.79;26.81;100620.09;5134720;27;20194;-71
2022/05/20 06:03:27;;;;;;;22.07;3.50;;;;;;;28.32;27.33;100615.25;5133814;27;20504;-71
2022/05/20 06:05:55;;;;;;;8.73;2.70;;;;;;;28.63;27.52;100615.84;5131469;27;20248;-71
2022/05/20 06:08:22;;;;;;;9.90;3.10;;;;;;;28.68;27.60;100613.91;5113273;28;20191;-71
2022/05/20 06:10:49;;;;;;;9.67;2.93;;;;;;;28.87;27.15;100611.25;5113665;28;20274;-71
2022/05/20 06:13:23;;;;;;;7.43;3.10;;;;;;;29.07;27.28;100611.03;5113612;28;20252;-71
2022/05/20 06:15:50;;;;;;;41.33;4.60;;;;;;;29.21;27.09;100617.47;5114387;28;20214;-71
2022/05/20 06:18:18;;;;;;;13.97;3.20;;;;;;;29.36;26.88;100609.09;5113274;28;20226;-71
2022/05/20 06:20:45;;;;;;;9.60;3.00;;;;;;;29.73;27.49;100614.66;5113139;28;20193;-71
2022/05/20 06:23:12;;;;;;;18.30;3.57;;;;;;;29.72;26.57;100607.53;5113008;28;20206;-72
2022/05/20 06:25:38;;;;;;;19.30;4.00;;;;;;;29.93;26.57;100613.56;5113556;28;20240;-71
2022/05/20 06:28:08;;;;;;;42.30;4.23;;;;;;;29.83;26.67;100614.53;5112884;28;20253;-71
2022/05/20 06:30:34;;;;;;;6.83;2.50;;;;;;;29.62;25.80;100615.91;5113223;28;20194;-71
2022/05/20 06:33:03;;;;;;;10.00;2.40;;;;;;;29.14;26.35;100611.53;5112635;28;20242;-71
2022/05/20 06:41:00;;;;;;;8.60;3.20;;;;;;;28.32;27.72;100608.97;5124485;27;20329;-71
2022/05/20 06:43:27;;;;;;;10.60;2.73;;;;;;;28.66;27.63;100615.25;5133102;27;20190;-71
2022/05/20 06:45:57;;;;;;;11.47;2.97;;;;;;;28.99;27.26;100611.69;5133324;27;20194;-71
2022/05/20 06:48:24;;;;;;;11.83;3.17;;;;;;;28.95;26.53;100602.41;5133030;27;20245;-71
2022/05/20 06:50:52;;;;;;;3.93;2.40;;;;;;;28.86;26.98;100604.97;5133115;27;20199;-72
2022/05/20 06:53:18;;;;;;;36.70;4.70;;;;;;;29.19;27.17;100595.88;5133334;27;20191;-71
2022/05/20 06:55:45;;;;;;;20.33;2.97;;;;;;;29.71;26.58;100597.69;5133329;27;20190;-72
2022/05/20 06:58:12;;;;;;;29.30;4.07;;;;;;;29.90;25.83;100605.94;5133093;27;20242;-71
2022/05/20 07:00:39;;;;;;;22.17;3.90;;;;;;;30.03;25.99;100597.78;5133069;27;20654;-72
2022/05/20 07:03:06;;;;;;;22.47;3.60;;;;;;;29.61;26.28;100597.84;5133321;27;20190;-71
2022/05/20 07:05:34;;;;;;;37.43;4.27;;;;;;;28.90;26.47;100606.00;5133115;27;20619;-71
2022/05/20 07:08:02;;;;;;;3.60;2.43;;;;;;;28.65;27.10;100600.78;5133350;27;20200;-73
2022/05/20 07:10:28;;;;;;;9.57;2.70;;;;;;;29.22;26.88;100597.19;5133123;27;20194;-72
2022/05/20 07:12:55;;;;;;;29.17;3.80;;;;;;;29.52;25.90;100599.56;5133212;27;20186;-72
2022/05/20 07:15:22;;;;;;;13.47;2.80;;;;;;;29.80;26.19;100593.19;5132937;27;20251;-72
2022/05/20 07:17:49;;;;;;;66.43;6.83;;;;;;;30.20;25.50;100592.63;5132699;27;20262;-72
2022/05/20 07:20:15;;;;;;;11.43;2.60;;;;;;;30.48;25.59;100594.34;5132701;27;20659;-72
2022/05/20 07:22:42;;;;;;;19.90;3.27;;;;;;;30.35;24.92;100589.63;5132746;27;20197;-72
2022/05/20 07:25:11;;;;;;;12.00;2.67;;;;;;;30.14;24.75;100593.81;5132612;27;20215;-72
2022/05/20 07:27:38;;;;;;;14.03;2.87;;;;;;;30.23;24.10;100589.28;5132961;27;20280;-72
2022/05/20 07:30:06;;;;;;;6.50;2.07;;;;;;;29.90;24.20;100587.56;5132923;27;20194;-72
2022/05/20 07:32:33;;;;;;;19.57;2.33;;;;;;;28.70;24.44;100588.97;5133147;27;20186;-72
2022/05/20 07:34:59;;;;;;;11.50;2.07;;;;;;;28.23;24.14;100586.91;5132476;27;20288;-72
2022/05/20 07:37:26;;;;;;;4.90;1.50;;;;;;;28.82;24.04;100586.66;5132577;27;20257;-72
2022/05/20 07:39:53;;;;;;;8.97;1.90;;;;;;;29.04;23.89;100593.28;5130560;27;20747;-72
2022/05/20 07:42:21;;;;;;;6.23;1.73;;;;;;;28.83;23.89;100582.84;5113280;28;20198;-72
2022/05/20 07:44:48;;;;;;;12.37;2.87;;;;;;;29.44;23.67;100578.31;5113462;28;20190;-72
2022/05/20 07:47:15;;;;;;;9.10;2.23;;;;;;;28.93;23.34;100583.56;5117275;28;20199;-72
2022/05/20 07:49:42;;;;;;;4.90;1.60;;;;;;;28.85;23.08;100581.44;5116239;27;20230;-72
2022/05/20 07:52:12;;;;;;;6.63;1.60;;;;;;;29.28;22.62;100574.94;5116006;28;20652;-72
2022/05/20 07:54:43;;;;;;;6.37;1.57;;;;;;;29.76;22.41;100569.44;5116635;28;20254;-72
2022/05/20 07:57:14;;;;;;;10.67;1.70;;;;;;;30.31;21.84;100583.13;5115826;28;20244;-72
2022/05/20 07:59:46;;;;;;;2.77;1.23;;;;;;;30.25;21.26;100578.81;5116181;27;20218;-72
2022/05/20 08:02:16;;;;;;;7.20;1.70;;;;;;;30.11;21.94;100580.66;5116013;28;20674;-72
2022/05/20 08:05:00;;;;;;;12.47;2.23;;;;;;;29.73;21.51;100576.31;5115636;28;20239;-72
2022/05/20 08:07:31;;;;;;;13.13;1.90;;;;;;;30.25;21.04;100575.28;5116738;28;20191;-72
2022/05/20 08:09:59;;;;;;;15.23;1.90;;;;;;;30.64;20.17;100571.03;5116013;28;20215;-72
2022/05/20 08:12:26;;;;;;;5.13;1.50;;;;;;;30.97;20.18;100572.63;5115903;27;20244;-72
2022/05/20 08:14:54;;;;;;;3.33;1.10;;;;;;;31.34;19.50;100569.69;5115462;28;20190;-72
2022/05/20 08:17:24;;;;;;;20.37;2.90;;;;;;;31.44;18.80;100571.41;5115925;28;20218;-72
2022/05/20 08:19:51;;;;;;;5.37;1.57;;;;;;;31.62;19.79;100564.97;5115863;28;20186;-72
2022/05/20 08:22:22;;;;;;;4.30;1.27;;;;;;;31.23;20.02;100561.97;5115849;28;20193;-72
2022/05/20 08:24:52;;;;;;;3.23;1.27;;;;;;;30.84;19.45;100564.38;5116525;28;20267;-72
2022/05/20 08:27:19;;;;;;;3.10;1.00;;;;;;;30.56;18.47;100552.50;5116236;28;20194;-72
2022/05/20 08:29:46;;;;;;;1.10;1.00;;;;;;;30.20;18.58;100551.50;5115617;27;20248;-72
2022/05/20 08:32:15;;;;;;;2.27;1.30;;;;;;;30.55;18.95;100542.66;5115535;28;20187;-72
2022/05/20 08:34:42;;;;;;;9.20;1.23;;;;;;;29.93;19.23;100534.88;5115181;28;20283;-72
2022/05/20 08:37:09;;;;;;;13.43;2.13;;;;;;;30.10;19.22;100532.44;5115315;28;20214;-72
2022/05/20 08:39:36;;;;;;;28.37;2.80;;;;;;;30.29;18.63;100533.22;5115054;28;20764;-72
2022/05/20 08:42:05;;;;;;;6.60;1.47;;;;;;;30.58;18.57;100527.53;5135607;27;20250;-72
2022/05/20 08:44:35;;;;;;;6.77;1.87;;;;;;;30.93;18.59;100529.59;5135774;27;20196;-72
2022/05/20 08:47:20;;;;;;;3.23;1.37;;;;;;;30.69;18.92;100524.31;5136153;27;20198;-72
2022/05/20 08:49:47;;;;;;;0.67;0.67;;;;;;;31.09;17.66;100526.25;5135885;27;20225;-72
2022/05/20 08:52:13;;;;;;;4.20;1.63;;;;;;;30.79;18.08;100524.09;5135375;27;20194;-72
2022/05/20 08:54:42;;;;;;;2.27;1.23;;;;;;;30.70;17.64;100523.19;5135294;27;20624;-72
2022/05/20 08:57:18;;;;;;;2.07;1.37;;;;;;;31.00;18.37;100522.59;5134180;27;20309;-72
2022/05/20 08:59:45;;;;;;;1.43;1.17;;;;;;;31.16;17.97;100515.69;5135297;27;20242;-72
2022/05/20 09:02:12;;;;;;;2.17;1.07;;;;;;;31.39;17.27;100511.09;5135161;27;20221;-72
2022/05/20 09:04:40;;;;;;;1.53;1.00;;;;;;;30.97;17.60;100512.22;5135047;27;20250;-72
2022/05/20 09:07:11;;;;;;;9.60;1.73;;;;;;;30.66;18.81;100502.94;5135492;27;20194;-72
2022/05/20 09:09:44;;;;;;;8.83;1.40;;;;;;;30.42;18.81;100498.75;5136050;27;20239;-72
2022/05/20 09:12:11;;;;;;;1.23;0.90;;;;;;;30.33;18.78;100498.59;5136418;27;20197;-72
2022/05/20 09:17:22;;;;;;;2.70;1.20;;;;;;;29.80;18.55;100491.00;5111864;27;20213;-72
2022/05/20 09:19:57;;;;;;;12.17;2.00;;;;;;;29.91;18.12;100490.53;5135472;27;20216;-72
2022/05/20 09:22:29;;;;;;;5.80;1.33;;;;;;;29.95;18.11;100479.78;5135138;27;20177;-72
2022/05/20 09:24:56;;;;;;;1.57;1.17;;;;;;;30.06;18.54;100482.06;5134547;27;20258;-72
2022/05/20 09:27:29;;;;;;;0.80;0.80;;;;;;;30.30;18.23;100485.53;5134404;27;20197;-72
2022/05/20 09:30:00;;;;;;;7.33;1.60;;;;;;;30.09;18.87;100475.97;5134829;27;20183;-72
2022/05/20 09:32:30;;;;;;;2.63;1.37;;;;;;;30.53;18.04;100465.31;5134625;27;20743;-72
2022/05/20 09:35:02;;;;;;;3.73;1.50;;;;;;;30.71;17.38;100467.22;5134428;27;20193;-72
2022/05/20 09:37:31;;;;;;;2.40;1.70;;;;;;;30.75;18.01;100457.25;5135471;27;20269;-72
2022/05/20 09:39:58;;;;;;;4.60;1.33;;;;;;;30.62;18.33;100458.00;5131802;27;20194;-72
2022/05/20 09:42:26;;;;;;;4.60;1.60;;;;;;;30.54;18.25;100455.19;5114683;28;20543;-72
2022/05/20 09:44:55;;;;;;;7.17;1.53;;;;;;;30.92;17.92;100446.47;5113788;28;20268;-72
2022/05/20 09:47:31;;;;;;;2.00;1.17;;;;;;;31.12;17.26;100457.00;5113863;28;20195;-72
2022/05/20 09:50:03;;;;;;;1.30;1.20;;;;;;;31.36;18.05;100441.09;5113674;28;20298;-72
2022/05/20 09:52:42;;;;;;;9.93;1.50;;;;;;;29.84;18.82;100440.78;5114333;28;20187;-72
2022/05/20 09:55:14;;;;;;;5.43;1.80;;;;;;;30.58;17.91;100435.03;5113364;28;20200;-72
2022/05/20 09:57:43;;;;;;;5.30;1.23;;;;;;;30.29;18.33;100440.00;5114385;28;20210;-72
2022/05/20 10:00:17;;;;;;;2.97;0.97;;;;;;;30.32;18.31;100436.66;5113469;28;20290;-72
2022/05/20 10:02:53;;;;;;;7.40;1.20;;;;;;;30.33;18.96;100430.06;5113909;28;20255;-72
2022/05/20 10:05:28;;;;;;;15.90;2.37;;;;;;;30.73;17.88;100426.53;5113588;28;20190;-72
2022/05/20 10:08:01;;;;;;;1.83;1.00;;;;;;;30.72;16.87;100435.91;5113723;28;20186;-72
2022/05/20 10:10:36;;;;;;;0.70;0.70;;;;;;;31.00;16.12;100423.78;5113323;28;20664;-72
2022/05/20 10:13:07;;;;;;;34.50;2.60;;;;;;;31.22;16.25;100428.50;5114445;28;20593;-72
2022/05/20 10:15:39;;;;;;;4.13;1.20;;;;;;;31.20;16.17;100426.03;5113881;27;20182;-72
2022/05/20 10:18:20;;;;;;;1.00;0.90;;;;;;;31.45;16.48;100420.03;5113802;28;20211;-72
2022/05/20 10:20:56;;;;;;;1.00;1.00;;;;;;;31.65;16.44;100416.75;5113808;28;20271;-72
2022/05/20 10:23:29;;;;;;;5.80;1.20;;;;;;;31.60;17.02;100413.34;5113687;28;20186;-72
2022/05/20 10:26:04;;;;;;;3.97;1.40;;;;;;;31.78;16.70;100406.88;5113824;27;20225;-72
2022/05/20 10:34:27;;;;;;;6.77;4.63;;;;;;;31.64;16.75;100393.16;5070257;28;20574;-72
2022/05/20 10:37:03;;;;;;;1.50;1.33;;;;;;;31.58;17.21;100397.19;5102719;28;20287;-72
2022/05/20 10:40:03;;;;;;;4.07;1.20;;;;;;;31.51;16.76;100388.53;5113369;28;20687;-72
2022/05/20 10:42:48;;;;;;;4.20;1.10;;;;;;;31.64;16.86;100395.13;5113038;28;20183;-72
2022/05/20 10:48:48;;;;;;;12.87;2.03;;;;;;;32.09;15.65;100383.75;5113383;28;20190;-72
2022/05/20 10:51:32;;;;;;;1.33;1.00;;;;;;;31.87;15.54;100386.56;5112249;28;20190;-72
2022/05/20 10:54:16;;;;;;;7.07;1.80;;;;;;;31.08;16.54;100372.81;5112887;28;20211;-72
2022/05/20 10:57:00;;;;;;;27.93;2.83;;;;;;;31.08;16.35;100373.63;5112449;28;20712;-72
2022/05/20 10:59:56;;;;;;;4.77;1.20;;;;;;;30.81;17.12;100378.34;5113088;28;20210;-72
2022/05/20 11:02:52;;;;;;;1.77;1.00;;;;;;;30.79;16.41;100375.91;5112503;28;20558;-72
2022/05/20 11:06:06;;;;;;;1.93;0.87;;;;;;;30.79;16.08;100370.44;5113210;28;20195;-72
2022/05/20 11:08:48;;;;;;;2.10;1.07;;;;;;;30.90;16.35;100365.56;5049831;28;20680;-72
2022/05/20 11:11:35;;;;;;;5.53;1.63;;;;;;;30.63;16.65;100363.63;5049895;28;20180;-72
2022/05/20 11:14:24;;;;;;;3.53;1.80;;;;;;;30.52;16.91;100358.66;5092545;28;20191;-72
2022/05/20 11:17:13;;;;;;;2.80;1.40;;;;;;;30.61;16.27;100357.63;5112770;28;20183;-72
2022/05/20 11:20:08;;;;;;;12.73;1.77;;;;;;;30.33;17.02;100345.06;5111258;28;20214;-72
2022/05/20 11:23:09;;;;;;;4.43;1.50;;;;;;;30.41;16.58;100347.06;5110693;28;20215;-72
2022/05/20 11:25:55;;;;;;;2.33;1.10;;;;;;;30.69;16.47;100340.47;5113293;28;20186;-72
2022/05/20 11:28:51;;;;;;;10.07;1.80;;;;;;;30.35;17.58;100340.09;5112228;28;20220;-72
2022/05/20 11:31:29;;;;;;;5.23;1.23;;;;;;;30.25;17.48;100326.56;5112127;28;20183;-72
2022/05/20 11:34:14;;;;;;;3.30;1.23;;;;;;;30.15;16.83;100329.53;5112550;28;20199;-72
2022/05/20 11:37:02;;;;;;;11.23;1.93;;;;;;;30.14;17.12;100330.66;5113000;28;20579;-72
2022/05/20 11:40:04;;;;;;;1.77;1.17;;;;;;;30.19;17.08;100327.78;5112323;28;20207;-72
2022/05/20 11:42:46;;;;;;;4.13;1.53;;;;;;;30.31;16.18;100319.06;5112303;28;20273;-72
2022/05/20 11:45:26;;;;;;;3.87;1.37;;;;;;;30.29;16.43;100322.09;5112722;28;20218;-72
2022/05/20 11:48:25;;;;;;;7.90;1.77;;;;;;;30.32;16.83;100321.50;5111998;28;20652;-72
2022/05/20 11:51:07;;;;;;;1.10;1.00;;;;;;;30.28;16.92;100315.00;5107631;28;20656;-72
2022/05/20 11:53:43;;;;;;;6.40;3.73;;;;;;;30.33;17.15;100303.91;5112276;28;20208;-72
2022/05/20 11:56:19;;;;;;;5.53;1.50;;;;;;;30.49;17.17;100302.47;5111922;28;20194;-72
2022/05/20 11:58:52;;;;;;;2.97;1.00;;;;;;;30.45;17.20;100304.22;5111825;28;20627;-72
2022/05/20 12:01:22;;;;;;;2.47;1.17;;;;;;;30.47;17.54;100291.03;5112460;28;20191;-72
2022/05/20 12:04:08;;;;;;;3.00;0.97;;;;;;;30.24;17.40;100303.00;5112382;28;20603;-72
2022/05/20 12:06:42;;;;;;;8.27;1.80;;;;;;;30.18;17.65;100293.28;5112075;28;20240;-72
2022/05/20 12:09:37;;;;;;;5.30;1.67;;;;;;;30.17;17.78;100288.91;5112928;28;20285;-72
2022/05/20 12:12:23;;;;;;;11.00;1.63;;;;;;;30.19;18.02;100288.59;5112006;28;20191;-72
2022/05/20 12:15:40;;;;;;;4.23;1.33;;;;;;;30.06;17.82;100294.88;5113015;28;20190;-72
2022/05/20 12:24:11;;;;;;;1.83;0.90;;;;;;;30.00;16.87;100274.97;5112610;28;20625;-72